Time;durP1;ratioP1;P1;durP2;ratioP2;P2;SDS_P1;SDS_P2;PMS_P1;PMS_P2;Temp;Humidity;BMP_temperature;BMP_pressure;BME280_temperature;BME280_humidity;BME280_pressure;Samples;Min_cycle;Max_cycle;Signal;HPM_P1;HPM_P2
2021/06/22 00:02:04;;;;;;;8.93;6.87;;;;;;;15.44;70.57;100202.84;5125327;27;20521;-67
2021/06/22 00:04:31;;;;;;;13.47;7.37;;;;;;;15.26;71.23;100197.69;5124433;28;20486;-67
2021/06/22 00:06:57;;;;;;;9.80;7.97;;;;;;;15.15;70.80;100198.88;5124813;28;20474;-67
2021/06/22 00:09:25;;;;;;;12.30;8.57;;;;;;;14.95;71.68;100198.41;5124385;28;20487;-68
2021/06/22 00:11:52;;;;;;;21.77;8.70;;;;;;;15.20;71.35;100211.81;5125202;28;20498;-67
2021/06/22 00:14:19;;;;;;;11.30;8.10;;;;;;;15.17;71.77;100222.94;5124367;28;20935;-68
2021/06/22 00:16:45;;;;;;;15.83;8.53;;;;;;;14.95;72.32;100213.72;5124621;28;20447;-68
2021/06/22 00:19:13;;;;;;;12.30;8.50;;;;;;;14.88;72.37;100218.94;5123833;28;20999;-68
2021/06/22 00:21:39;;;;;;;12.90;8.47;;;;;;;14.99;71.86;100221.28;5124894;28;20836;-68
2021/06/22 00:24:07;;;;;;;14.20;8.97;;;;;;;14.98;72.51;100230.38;5124573;28;20997;-67
2021/06/22 00:26:35;;;;;;;12.53;9.30;;;;;;;14.89;72.28;100231.38;5124187;28;20515;-67
2021/06/22 00:29:01;;;;;;;15.90;8.00;;;;;;;15.04;72.13;100223.47;5123961;28;20462;-67
2021/06/22 00:31:28;;;;;;;9.47;8.33;;;;;;;14.83;72.48;100210.53;5124821;28;20424;-67
2021/06/22 00:33:55;;;;;;;11.00;7.90;;;;;;;14.77;72.79;100204.00;5123806;27;20497;-67
2021/06/22 00:36:21;;;;;;;15.67;9.57;;;;;;;14.48;73.60;100182.94;5123864;28;20475;-67
2021/06/22 00:38:48;;;;;;;15.93;8.60;;;;;;;14.61;73.31;100179.75;5123639;28;20886;-67
2021/06/22 00:41:15;;;;;;;12.97;8.37;;;;;;;14.47;73.57;100174.00;5122810;28;20529;-67
2021/06/22 00:43:43;;;;;;;15.27;9.17;;;;;;;14.67;73.01;100165.66;5124566;27;20956;-66
2021/06/22 00:46:09;;;;;;;11.93;10.53;;;;;;;14.68;73.57;100164.63;5124260;28;20463;-67
2021/06/22 00:48:37;;;;;;;11.60;8.30;;;;;;;14.43;74.13;100163.78;5124181;28;20526;-67
2021/06/22 00:51:03;;;;;;;14.30;8.57;;;;;;;14.60;73.69;100162.78;5122895;28;20562;-67
2021/06/22 00:53:30;;;;;;;14.67;8.30;;;;;;;14.57;73.74;100155.00;5124148;28;20452;-67
2021/06/22 00:55:57;;;;;;;20.37;8.97;;;;;;;14.74;72.89;100152.31;5110011;27;20488;-67
2021/06/22 00:58:24;;;;;;;14.90;9.00;;;;;;;14.68;73.35;100154.69;5083270;28;20460;-67
2021/06/22 01:00:52;;;;;;;12.57;8.43;;;;;;;14.58;73.96;100159.44;5091663;28;20491;-67
2021/06/22 01:03:19;;;;;;;16.57;8.67;;;;;;;14.58;73.22;100158.53;5095841;28;20547;-67
2021/06/22 01:05:46;;;;;;;13.30;7.57;;;;;;;14.61;73.35;100163.63;5098270;28;20518;-66
2021/06/22 01:08:13;;;;;;;16.33;8.50;;;;;;;14.61;73.09;100159.06;5082875;28;20481;-66
2021/06/22 01:10:40;;;;;;;18.23;9.30;;;;;;;14.76;72.93;100161.94;5090453;28;21066;-67
2021/06/22 01:13:06;;;;;;;18.30;9.13;;;;;;;14.54;73.67;100141.91;5083120;28;20508;-67
2021/06/22 01:15:33;;;;;;;15.90;9.57;;;;;;;14.38;74.02;100150.81;5081829;28;20477;-67
2021/06/22 01:18:03;;;;;;;17.30;8.97;;;;;;;14.61;73.62;100142.94;5082667;28;20446;-67
2021/06/22 01:20:31;;;;;;;13.23;10.13;;;;;;;14.52;74.13;100129.63;5081449;28;20479;-66
2021/06/22 01:23:00;;;;;;;19.67;9.57;;;;;;;14.36;74.48;100120.56;5087495;28;20493;-66
2021/06/22 01:25:27;;;;;;;15.60;9.30;;;;;;;14.29;74.82;100133.84;5093801;28;20542;-65
2021/06/22 01:27:54;;;;;;;13.43;9.47;;;;;;;14.15;75.46;100130.97;5082836;28;21091;-65
2021/06/22 01:30:21;;;;;;;14.90;9.63;;;;;;;14.14;75.61;100132.81;5081607;28;20455;-67
2021/06/22 01:32:48;;;;;;;14.83;9.40;;;;;;;14.27;74.71;100129.66;5082398;28;20464;-67
2021/06/22 01:35:14;;;;;;;13.87;9.03;;;;;;;13.94;75.44;100130.44;5081238;28;20483;-67
2021/06/22 01:37:50;;;;;;;13.30;9.63;;;;;;;14.17;75.13;100135.19;5084816;28;21204;-67
2021/06/22 01:40:18;;;;;;;16.70;9.57;;;;;;;14.24;74.70;100140.72;5091990;28;20484;-67
2021/06/22 01:42:45;;;;;;;11.50;8.50;;;;;;;14.04;75.44;100142.88;5094333;28;20476;-67
2021/06/22 01:45:12;;;;;;;13.50;8.80;;;;;;;14.26;74.21;100155.69;5081579;28;20885;-67
2021/06/22 01:47:40;;;;;;;10.30;9.20;;;;;;;14.29;74.25;100158.03;5082629;28;20456;-67
2021/06/22 01:50:08;;;;;;;15.93;9.10;;;;;;;13.98;75.20;100173.97;5080967;28;20552;-67
2021/06/22 01:52:35;;;;;;;14.20;8.63;;;;;;;14.04;74.90;100178.66;5083427;28;20432;-67
2021/06/22 01:55:34;;;;;;;13.40;8.00;;;;;;;14.07;75.21;100180.19;5101393;28;20459;-68
2021/06/22 01:57:50;;;;;;;13.10;8.00;;;;;;;14.17;74.50;100178.19;5102130;28;20474;-68
2021/06/22 02:00:18;;;;;;;14.93;9.63;;;;;;;14.19;74.06;100183.41;5070296;28;20930;-68
2021/06/22 02:02:45;;;;;;;17.80;8.00;;;;;;;14.25;73.39;100183.59;5082026;28;21087;-68
2021/06/22 02:05:13;;;;;;;8.23;7.10;;;;;;;14.41;73.59;100185.44;5100680;28;20476;-68
2021/06/22 02:07:40;;;;;;;10.23;8.13;;;;;;;14.41;73.49;100188.13;5098649;28;20447;-68
2021/06/22 02:10:08;;;;;;;12.17;7.60;;;;;;;14.40;73.57;100185.63;5081377;28;20460;-68
2021/06/22 02:12:35;;;;;;;16.43;8.37;;;;;;;14.56;73.04;100193.69;5101844;28;21000;-68
2021/06/22 02:15:03;;;;;;;10.53;7.20;;;;;;;14.43;73.14;100196.88;5086529;28;20901;-68
2021/06/22 02:17:30;;;;;;;15.77;6.33;;;;;;;14.32;73.72;100192.69;5086088;28;20444;-68
2021/06/22 02:19:56;;;;;;;10.23;7.00;;;;;;;14.12;74.09;100207.41;5086104;28;20446;-68
2021/06/22 02:22:23;;;;;;;11.93;7.07;;;;;;;14.07;73.85;100209.75;5100018;28;20996;-68
2021/06/22 02:24:49;;;;;;;13.30;6.10;;;;;;;14.34;73.56;100205.97;5086954;28;20540;-68
2021/06/22 02:27:24;;;;;;;11.90;6.60;;;;;;;14.36;73.54;100203.09;5104404;28;20502;-68
2021/06/22 02:29:50;;;;;;;15.83;6.30;;;;;;;14.05;73.86;100203.72;5102362;28;20455;-68
2021/06/22 02:32:18;;;;;;;17.13;6.80;;;;;;;14.08;74.40;100189.94;5102257;28;20517;-68
2021/06/22 02:34:45;;;;;;;13.80;7.50;;;;;;;14.04;74.23;100197.47;5091478;28;20518;-68
2021/06/22 02:37:12;;;;;;;12.73;8.73;;;;;;;14.12;73.97;100199.34;5101897;28;21006;-68
2021/06/22 02:39:38;;;;;;;10.57;6.57;;;;;;;14.16;73.64;100200.69;5085865;28;21071;-69
2021/06/22 02:42:05;;;;;;;15.13;7.03;;;;;;;14.27;73.54;100191.50;5103581;28;20485;-67
2021/06/22 02:44:32;;;;;;;15.00;6.07;;;;;;;14.17;73.32;100182.75;5106281;28;20439;-67
2021/06/22 02:46:59;;;;;;;10.30;6.20;;;;;;;14.16;73.71;100167.59;5101564;28;21027;-67
2021/06/22 02:49:27;;;;;;;9.30;6.60;;;;;;;14.29;73.33;100166.09;5102075;28;20584;-67
2021/06/22 02:51:54;;;;;;;10.13;7.00;;;;;;;14.26;73.43;100173.66;5100382;28;21056;-69
2021/06/22 02:54:21;;;;;;;12.20;6.83;;;;;;;14.30;73.23;100183.06;5104624;28;20486;-68
2021/06/22 02:56:47;;;;;;;12.37;6.73;;;;;;;14.29;73.30;100197.53;5105639;28;20566;-69
2021/06/22 02:59:14;;;;;;;13.67;6.97;;;;;;;14.54;72.58;100213.69;5088239;28;21292;-69
2021/06/22 03:01:40;;;;;;;12.57;6.60;;;;;;;14.48;72.67;100215.22;5098998;28;20499;-69
2021/06/22 03:04:07;;;;;;;11.33;7.50;;;;;;;14.59;72.12;100222.16;5086492;28;20515;-69
2021/06/22 03:06:35;;;;;;;15.93;7.67;;;;;;;14.56;72.27;100225.97;5096853;28;20994;-69
2021/06/22 03:09:02;;;;;;;11.90;8.50;;;;;;;14.48;72.37;100225.97;5100855;28;20448;-68
2021/06/22 03:11:28;;;;;;;14.67;7.47;;;;;;;14.72;72.02;100230.56;5104726;28;20467;-67
2021/06/22 03:13:55;;;;;;;12.20;8.50;;;;;;;14.87;71.44;100244.19;5089867;28;20471;-67
2021/06/22 03:16:21;;;;;;;9.83;6.67;;;;;;;14.97;71.28;100247.53;5095576;28;20471;-67
2021/06/22 03:18:48;;;;;;;9.77;6.03;;;;;;;15.03;70.85;100260.34;5091991;28;20897;-67
2021/06/22 03:21:15;;;;;;;12.27;6.90;;;;;;;15.07;70.63;100271.59;5094019;28;20499;-67
2021/06/22 03:23:43;;;;;;;11.83;7.50;;;;;;;15.02;70.72;100272.09;5092003;28;20858;-69
2021/06/22 03:26:09;;;;;;;11.70;9.10;;;;;;;14.95;70.73;100268.41;5094143;28;20570;-69
2021/06/22 03:28:36;;;;;;;14.53;8.50;;;;;;;14.82;70.93;100271.59;5098896;28;20544;-67
2021/06/22 03:31:02;;;;;;;15.80;8.50;;;;;;;14.69;71.79;100260.50;5092527;28;20532;-68
2021/06/22 03:33:29;;;;;;;18.90;8.80;;;;;;;14.75;71.51;100261.66;5088652;28;20440;-67
2021/06/22 03:35:56;;;;;;;13.07;8.20;;;;;;;14.83;71.48;100254.44;5091257;28;20460;-69
2021/06/22 03:38:22;;;;;;;14.67;8.53;;;;;;;14.92;71.45;100257.97;5088825;28;20805;-67
2021/06/22 03:40:50;;;;;;;13.30;8.70;;;;;;;14.91;71.47;100258.13;5087132;28;20567;-67
2021/06/22 03:43:17;;;;;;;10.40;7.67;;;;;;;15.04;70.92;100243.16;5103661;28;20511;-67
2021/06/22 03:45:44;;;;;;;9.63;7.63;;;;;;;15.01;71.40;100242.66;5103190;28;20564;-68
2021/06/22 03:48:10;;;;;;;11.80;8.23;;;;;;;15.06;71.09;100235.72;5102905;28;20512;-68
2021/06/22 03:50:38;;;;;;;14.33;8.63;;;;;;;14.95;71.13;100246.03;5103814;28;20557;-67
2021/06/22 03:53:04;;;;;;;11.73;8.40;;;;;;;15.00;71.66;100241.81;5102233;28;20452;-67
2021/06/22 03:55:31;;;;;;;12.30;8.30;;;;;;;14.88;71.88;100248.56;5103677;28;20546;-67
2021/06/22 03:58:01;;;;;;;14.67;9.37;;;;;;;14.87;71.69;100249.56;5095944;28;20981;-68
2021/06/22 04:00:28;;;;;;;15.87;8.00;;;;;;;14.86;71.80;100247.88;5087022;28;20488;-67
2021/06/22 04:02:56;;;;;;;14.23;8.73;;;;;;;14.97;71.42;100252.91;5097101;28;20580;-67
2021/06/22 04:05:23;;;;;;;11.13;8.97;;;;;;;14.93;71.96;100251.59;5086433;28;20455;-67
2021/06/22 04:07:49;;;;;;;13.67;9.27;;;;;;;14.95;71.54;100256.81;5099133;28;20523;-67
2021/06/22 04:10:16;;;;;;;13.30;8.93;;;;;;;14.92;72.13;100268.72;5083497;28;20460;-67
2021/06/22 04:12:43;;;;;;;13.33;9.60;;;;;;;15.22;71.05;100261.81;5083622;28;20836;-67
2021/06/22 04:15:11;;;;;;;17.00;9.57;;;;;;;15.14;71.06;100264.53;5083736;28;20553;-66
2021/06/22 04:17:38;;;;;;;19.77;10.37;;;;;;;15.04;71.60;100258.47;5094604;28;20453;-67
2021/06/22 04:20:06;;;;;;;17.60;11.03;;;;;;;14.93;71.69;100254.28;5082046;28;20453;-67
2021/06/22 04:22:33;;;;;;;21.87;11.47;;;;;;;14.92;71.62;100257.97;5102728;28;20490;-67
2021/06/22 04:25:00;;;;;;;19.97;11.80;;;;;;;14.87;72.22;100254.94;5085167;28;20517;-67
2021/06/22 04:27:26;;;;;;;13.73;10.50;;;;;;;15.15;70.89;100274.25;5093412;28;21504;-67
2021/06/22 04:29:53;;;;;;;20.03;10.87;;;;;;;15.17;70.80;100269.56;5080646;28;20494;-67
2021/06/22 04:32:21;;;;;;;20.93;10.70;;;;;;;15.16;71.23;100269.75;5100479;28;20914;-67
2021/06/22 04:34:47;;;;;;;13.23;11.40;;;;;;;15.33;70.42;100263.31;5101741;28;20490;-66
2021/06/22 04:37:14;;;;;;;16.97;10.17;;;;;;;15.66;68.69;100260.53;5103767;28;20491;-65
2021/06/22 04:39:41;;;;;;;15.40;10.60;;;;;;;15.85;68.47;100248.53;5100650;28;20498;-65
2021/06/22 04:42:08;;;;;;;15.27;10.17;;;;;;;16.04;67.61;100257.19;5102020;28;20545;-64
2021/06/22 04:44:34;;;;;;;15.57;9.63;;;;;;;15.94;67.54;100260.13;5103665;28;20530;-63
2021/06/22 04:47:01;;;;;;;15.07;9.20;;;;;;;16.13;66.73;100262.38;5102222;28;20490;-63
2021/06/22 04:49:29;;;;;;;12.20;9.97;;;;;;;15.90;66.93;100251.56;5103238;28;20584;-63
2021/06/22 04:51:55;;;;;;;18.50;9.90;;;;;;;15.73;67.46;100244.53;5102439;28;20501;-67
2021/06/22 04:54:23;;;;;;;15.87;10.70;;;;;;;16.18;66.67;100243.81;5101664;28;20537;-66
2021/06/22 04:56:50;;;;;;;13.10;9.43;;;;;;;16.43;65.26;100246.34;5102817;28;20480;-68
2021/06/22 04:59:17;;;;;;;12.73;9.60;;;;;;;17.02;63.30;100244.94;5102993;28;20458;-67
2021/06/22 05:01:44;;;;;;;14.50;9.27;;;;;;;17.24;62.26;100240.50;5098552;28;20938;-67
2021/06/22 05:04:11;;;;;;;9.43;8.33;;;;;;;17.68;61.09;100245.06;5103012;28;20526;-67
2021/06/22 05:06:39;;;;;;;13.20;9.67;;;;;;;18.59;57.50;100239.28;5101647;28;20483;-67
2021/06/22 05:09:06;;;;;;;14.50;8.40;;;;;;;18.16;58.81;100237.41;5102320;28;20542;-67
2021/06/22 05:11:32;;;;;;;14.73;9.27;;;;;;;17.53;61.17;100238.81;5102654;28;20550;-67
2021/06/22 05:13:59;;;;;;;13.47;9.10;;;;;;;17.31;61.40;100238.75;5102568;28;20439;-69
2021/06/22 05:16:28;;;;;;;11.07;8.57;;;;;;;19.19;54.93;100242.53;5082417;28;20479;-68
2021/06/22 05:18:54;;;;;;;10.20;7.97;;;;;;;18.84;55.96;100236.22;5100786;28;20463;-68
2021/06/22 05:21:21;;;;;;;15.40;9.13;;;;;;;17.58;59.48;100252.63;5102445;28;20532;-68
2021/06/22 05:23:49;;;;;;;14.77;9.63;;;;;;;16.89;61.94;100246.38;5102915;28;20514;-71
2021/06/22 05:26:15;;;;;;;12.60;9.50;;;;;;;16.85;63.00;100244.22;5102255;28;20502;-68
2021/06/22 05:28:42;;;;;;;12.53;9.27;;;;;;;17.44;60.68;100251.59;5088198;28;20524;-68
2021/06/22 05:31:09;;;;;;;19.13;9.50;;;;;;;16.98;62.33;100244.47;5092758;28;20499;-66
2021/06/22 05:33:36;;;;;;;14.37;9.30;;;;;;;16.77;63.40;100247.81;5083201;28;20452;-67
2021/06/22 05:36:03;;;;;;;17.90;9.57;;;;;;;16.91;61.94;100243.50;5085636;28;20490;-67
2021/06/22 05:38:29;;;;;;;18.70;10.27;;;;;;;16.27;63.95;100230.28;5080783;28;20444;-67
2021/06/22 05:40:57;;;;;;;13.90;9.60;;;;;;;16.41;64.36;100224.13;5083098;28;20496;-67
2021/06/22 05:43:24;;;;;;;15.77;8.90;;;;;;;16.15;64.24;100235.25;5082644;28;20519;-68
2021/06/22 05:45:50;;;;;;;12.70;9.27;;;;;;;16.25;64.94;100237.69;5084388;28;20534;-68
2021/06/22 05:48:17;;;;;;;15.80;9.23;;;;;;;16.28;64.31;100237.34;5081633;28;20534;-67
2021/06/22 05:50:43;;;;;;;17.90;10.00;;;;;;;16.67;63.71;100242.66;5085891;28;21038;-67
2021/06/22 05:53:10;;;;;;;23.13;9.30;;;;;;;17.17;63.02;100253.03;5081676;28;20472;-67
2021/06/22 05:55:37;;;;;;;11.43;9.20;;;;;;;17.03;62.21;100258.25;5080814;28;20510;-67
2021/06/22 05:58:05;;;;;;;15.00;8.40;;;;;;;17.20;61.98;100271.59;5082429;28;20504;-67
2021/06/22 06:00:33;;;;;;;17.63;9.00;;;;;;;16.96;62.52;100288.84;5081305;28;20527;-67
2021/06/22 06:03:00;;;;;;;10.40;8.40;;;;;;;16.37;64.35;100287.56;5082338;28;20436;-67
2021/06/22 06:05:27;;;;;;;12.83;8.33;;;;;;;16.43;64.82;100292.22;5082145;28;20490;-67
2021/06/22 06:07:54;;;;;;;14.83;8.47;;;;;;;15.94;66.21;100287.09;5082825;28;21015;-67
2021/06/22 06:10:21;;;;;;;12.70;9.03;;;;;;;16.08;65.26;100283.66;5081511;28;20446;-67
2021/06/22 06:12:48;;;;;;;15.93;9.20;;;;;;;16.38;65.22;100278.44;5082612;28;20455;-67
2021/06/22 06:15:17;;;;;;;18.43;8.10;;;;;;;16.36;64.79;100283.16;5082122;28;20569;-67
2021/06/22 06:17:44;;;;;;;18.63;7.87;;;;;;;16.64;63.37;100280.78;5082492;28;20518;-67
2021/06/22 06:20:12;;;;;;;10.60;8.20;;;;;;;16.69;63.77;100286.50;5081617;28;20548;-67
2021/06/22 06:22:40;;;;;;;10.93;7.47;;;;;;;17.48;61.79;100277.22;5084024;28;20805;-67
2021/06/22 06:25:09;;;;;;;11.03;7.30;;;;;;;17.67;59.69;100282.09;5092555;28;20993;-67
2021/06/22 06:27:44;;;;;;;10.77;7.37;;;;;;;17.77;59.77;100283.66;5077586;28;20479;-67
2021/06/22 06:30:13;;;;;;;12.33;7.50;;;;;;;18.21;58.66;100285.50;5065403;28;20525;-67
2021/06/22 06:32:41;;;;;;;13.20;6.73;;;;;;;18.36;58.02;100294.44;5100169;28;20443;-68
2021/06/22 06:35:09;;;;;;;17.23;7.37;;;;;;;17.99;58.18;100288.16;5079257;28;20497;-67
2021/06/22 06:37:36;;;;;;;14.10;7.47;;;;;;;17.29;60.73;100284.00;5068925;28;20487;-67
2021/06/22 06:40:03;;;;;;;9.53;6.63;;;;;;;17.63;59.40;100278.06;5080016;28;20490;-67
2021/06/22 06:42:29;;;;;;;10.87;7.33;;;;;;;16.97;62.03;100285.97;5079767;28;20503;-67
2021/06/22 06:44:56;;;;;;;13.83;7.90;;;;;;;16.71;62.90;100286.31;5080954;28;20732;-66
2021/06/22 06:47:23;;;;;;;14.33;8.93;;;;;;;16.27;63.29;100295.03;5079626;28;20480;-67
2021/06/22 06:49:51;;;;;;;13.43;7.90;;;;;;;16.46;63.53;100288.34;5079462;28;20487;-67
2021/06/22 06:52:17;;;;;;;11.70;7.53;;;;;;;16.69;62.96;100302.69;5092818;28;20525;-67
2021/06/22 06:54:44;;;;;;;12.67;6.30;;;;;;;16.96;61.19;100305.06;5080472;28;20437;-67
2021/06/22 06:57:11;;;;;;;9.77;6.00;;;;;;;16.79;62.86;100299.75;5097197;28;20487;-67
2021/06/22 06:59:37;;;;;;;13.60;6.20;;;;;;;16.84;62.77;100313.59;5104538;28;20869;-67
2021/06/22 07:02:04;;;;;;;13.07;5.90;;;;;;;16.62;62.20;100322.50;5103307;28;20536;-66
2021/06/22 07:04:32;;;;;;;9.40;5.97;;;;;;;16.90;61.86;100328.22;5097933;28;20475;-67
2021/06/22 07:07:00;;;;;;;11.63;5.53;;;;;;;17.24;61.29;100325.09;5089668;28;20541;-67
2021/06/22 07:09:27;;;;;;;10.53;5.83;;;;;;;17.55;59.59;100325.97;5083671;28;20460;-67
2021/06/22 07:11:56;;;;;;;9.57;5.53;;;;;;;17.69;58.76;100326.00;5082676;28;20911;-67
2021/06/22 07:14:22;;;;;;;10.17;5.23;;;;;;;17.83;58.53;100328.91;5083462;28;20463;-67
2021/06/22 07:16:49;;;;;;;10.50;5.93;;;;;;;18.11;57.21;100331.81;5083776;28;20503;-67
2021/06/22 07:19:16;;;;;;;12.40;5.73;;;;;;;18.84;55.78;100334.56;5083426;28;20493;-67
2021/06/22 07:21:42;;;;;;;10.20;5.00;;;;;;;19.58;52.96;100330.59;5083527;28;20534;-67
2021/06/22 07:24:10;;;;;;;7.70;5.33;;;;;;;21.71;47.52;100327.72;5083605;28;20480;-67
2021/06/22 07:26:38;;;;;;;9.00;4.70;;;;;;;23.88;41.92;100329.63;5081856;28;20560;-67
2021/06/22 07:29:06;;;;;;;11.30;3.87;;;;;;;23.53;41.90;100333.94;5083745;28;20463;-67
2021/06/22 07:31:33;;;;;;;8.10;4.50;;;;;;;22.48;44.02;100332.53;5082628;28;20501;-67
2021/06/22 07:34:00;;;;;;;8.33;4.20;;;;;;;23.62;41.99;100341.59;5081808;28;20914;-67
2021/06/22 07:36:26;;;;;;;7.37;4.10;;;;;;;23.17;43.42;100347.25;5078193;28;20567;-67
2021/06/22 07:38:53;;;;;;;11.00;5.17;;;;;;;21.90;45.90;100336.06;5081695;28;20482;-67
2021/06/22 07:41:22;;;;;;;11.03;4.93;;;;;;;21.60;46.08;100337.38;5082309;28;20544;-67
2021/06/22 07:43:49;;;;;;;9.63;6.97;;;;;;;21.71;45.90;100333.19;5083493;28;20480;-67
2021/06/22 07:46:15;;;;;;;11.17;6.50;;;;;;;20.86;46.78;100322.88;5082572;28;20504;-67
2021/06/22 07:48:42;;;;;;;9.13;6.87;;;;;;;19.28;51.33;100311.81;5083123;28;20451;-67
2021/06/22 07:51:09;;;;;;;7.50;6.23;;;;;;;20.39;48.74;100324.63;5082426;28;20721;-67
2021/06/22 07:53:36;;;;;;;11.30;7.40;;;;;;;20.66;47.17;100320.16;5081929;28;20474;-67
2021/06/22 07:56:03;;;;;;;8.33;7.20;;;;;;;19.66;50.63;100319.63;5083002;28;21028;-67
2021/06/22 07:58:31;;;;;;;13.87;7.60;;;;;;;19.49;51.99;100319.06;5083118;28;20423;-67
2021/06/22 08:00:58;;;;;;;9.53;7.37;;;;;;;19.03;53.57;100319.53;5081503;28;20498;-67
2021/06/22 08:03:27;;;;;;;9.40;6.13;;;;;;;18.08;55.68;100320.53;5082081;28;20520;-67
2021/06/22 08:05:53;;;;;;;16.23;6.60;;;;;;;17.93;56.48;100325.94;5082601;28;20480;-67
2021/06/22 08:08:22;;;;;;;20.40;5.70;;;;;;;18.23;56.63;100318.66;5082366;28;20505;-66
2021/06/22 08:10:50;;;;;;;6.13;4.53;;;;;;;18.72;55.34;100317.97;5088042;28;20475;-67
2021/06/22 08:13:17;;;;;;;7.10;5.10;;;;;;;18.96;54.23;100324.06;5103029;28;20453;-67
2021/06/22 08:15:45;;;;;;;8.80;4.93;;;;;;;19.32;53.88;100318.56;5096365;28;20472;-68
2021/06/22 08:18:12;;;;;;;10.57;4.50;;;;;;;19.19;54.19;100332.81;5082707;28;20432;-67
2021/06/22 08:20:40;;;;;;;7.70;3.90;;;;;;;19.63;51.79;100330.03;5066515;28;20542;-68
2021/06/22 08:23:07;;;;;;;8.93;4.17;;;;;;;19.24;51.25;100324.09;5071529;28;20497;-68
2021/06/22 08:25:35;;;;;;;11.07;4.57;;;;;;;19.66;50.84;100330.47;5092362;28;21309;-67
2021/06/22 08:28:01;;;;;;;8.07;4.70;;;;;;;19.19;52.59;100337.41;5082525;28;20425;-68
2021/06/22 08:30:28;;;;;;;15.43;5.47;;;;;;;18.75;54.35;100344.66;5082415;28;20490;-68
2021/06/22 08:32:57;;;;;;;8.13;4.20;;;;;;;18.41;55.79;100340.72;5102177;28;20440;-67
2021/06/22 08:35:25;;;;;;;9.03;4.10;;;;;;;18.59;55.75;100347.59;5101953;28;20464;-66
2021/06/22 08:37:52;;;;;;;8.97;5.07;;;;;;;18.49;56.17;100350.63;5099631;28;20447;-68
2021/06/22 08:40:19;;;;;;;12.83;4.83;;;;;;;17.61;57.76;100353.13;5098357;28;20554;-68
2021/06/22 08:42:46;;;;;;;9.63;5.30;;;;;;;17.29;58.96;100344.31;5081991;28;20614;-69
2021/06/22 08:45:14;;;;;;;11.07;5.23;;;;;;;17.58;58.20;100350.78;5080915;28;20472;-69
2021/06/22 08:47:41;;;;;;;8.00;4.70;;;;;;;17.53;58.79;100349.66;5082168;28;20439;-69
2021/06/22 08:50:11;;;;;;;14.20;5.70;;;;;;;17.78;57.91;100363.78;5081038;28;20500;-69
2021/06/22 08:52:38;;;;;;;15.10;5.30;;;;;;;18.03;57.16;100350.84;5080792;28;20436;-69
2021/06/22 08:55:07;;;;;;;7.70;4.17;;;;;;;18.35;56.56;100357.75;5081786;28;20521;-68
2021/06/22 08:57:35;;;;;;;9.50;4.93;;;;;;;19.08;54.73;100354.16;5081910;28;20487;-69
2021/06/22 09:00:01;;;;;;;10.13;4.43;;;;;;;18.92;54.51;100363.41;5080710;28;20494;-69
2021/06/22 09:02:28;;;;;;;8.67;4.00;;;;;;;19.64;53.00;100342.56;5087354;28;20613;-69
2021/06/22 09:04:56;;;;;;;6.77;4.17;;;;;;;20.17;51.58;100342.88;5084964;28;20507;-69
2021/06/22 09:07:43;;;;;;;10.20;4.53;;;;;;;20.54;49.45;100346.19;5076612;28;20496;-68
2021/06/22 09:10:19;;;;;;;6.27;4.10;;;;;;;20.66;49.23;100358.19;5080476;28;20843;-69
2021/06/22 09:12:45;;;;;;;8.77;4.30;;;;;;;20.91;49.14;100362.22;5083153;28;20460;-69
2021/06/22 09:15:17;;;;;;;11.07;4.83;;;;;;;20.28;50.07;100363.22;5102345;28;20447;-68
2021/06/22 09:17:46;;;;;;;8.27;4.53;;;;;;;19.43;51.78;100367.84;5105607;28;20459;-68
2021/06/22 09:20:13;;;;;;;6.47;4.30;;;;;;;19.15;53.48;100361.34;5100236;28;20458;-69
2021/06/22 09:22:40;;;;;;;7.10;4.30;;;;;;;19.18;54.46;100355.56;5100120;28;21055;-68
2021/06/22 09:25:11;;;;;;;7.07;3.73;;;;;;;19.04;53.64;100351.00;5085486;28;20571;-68
2021/06/22 09:27:54;;;;;;;6.40;3.60;;;;;;;18.84;53.46;100353.53;5098233;28;20497;-69
2021/06/22 09:30:41;;;;;;;7.40;3.97;;;;;;;18.41;54.46;100367.78;5100705;28;20458;-69
2021/06/22 09:33:20;;;;;;;7.20;3.77;;;;;;;17.93;56.11;100383.56;5101372;28;20462;-68
2021/06/22 09:35:47;;;;;;;8.30;3.70;;;;;;;17.65;56.47;100386.91;5099843;28;20483;-69
2021/06/22 09:38:14;;;;;;;7.07;3.20;;;;;;;17.42;57.05;100392.31;5104492;28;20505;-68
2021/06/22 09:40:42;;;;;;;10.27;4.00;;;;;;;17.77;56.14;100384.56;5100990;28;20499;-69
2021/06/22 09:43:09;;;;;;;6.60;3.40;;;;;;;18.16;56.01;100374.56;5102036;28;20478;-68
2021/06/22 09:45:37;;;;;;;5.90;2.80;;;;;;;18.40;55.31;100382.38;5100567;28;20483;-68
2021/06/22 09:48:06;;;;;;;6.70;3.43;;;;;;;17.80;56.19;100378.78;5115047;28;20554;-68
2021/06/22 09:50:40;;;;;;;9.63;4.13;;;;;;;17.65;57.40;100376.09;5117745;28;20475;-69
2021/06/22 09:53:23;;;;;;;6.83;4.23;;;;;;;17.45;57.64;100372.22;5099452;28;20508;-69
2021/06/22 09:55:52;;;;;;;9.60;3.67;;;;;;;17.79;57.46;100377.09;5101696;28;20480;-69
2021/06/22 09:58:35;;;;;;;10.00;3.93;;;;;;;18.06;57.66;100382.94;5101834;28;20444;-68
2021/06/22 10:01:02;;;;;;;8.93;3.77;;;;;;;18.37;56.40;100377.34;5100659;28;20489;-68
2021/06/22 10:03:35;;;;;;;3.80;3.10;;;;;;;18.31;55.34;100379.94;5101051;28;20455;-69
2021/06/22 10:06:06;;;;;;;7.57;3.70;;;;;;;18.43;55.52;100378.44;5100977;28;20482;-69
2021/06/22 10:08:54;;;;;;;13.73;4.00;;;;;;;19.49;53.33;100359.75;5100285;28;20479;-70
2021/06/22 10:11:34;;;;;;;7.43;3.63;;;;;;;20.46;51.24;100366.22;5101066;28;20479;-69
2021/06/22 10:14:02;;;;;;;8.67;4.10;;;;;;;21.09;48.34;100365.16;5100801;28;20431;-69
2021/06/22 10:16:32;;;;;;;11.17;3.40;;;;;;;21.35;47.55;100364.38;5101430;28;20588;-69
2021/06/22 10:19:00;;;;;;;7.23;3.33;;;;;;;21.40;46.64;100361.84;5101238;28;20498;-69
2021/06/22 10:21:27;;;;;;;6.87;3.63;;;;;;;20.72;48.34;100366.56;5100007;28;20890;-69
2021/06/22 10:23:53;;;;;;;11.57;3.60;;;;;;;20.37;49.28;100372.84;5101446;28;20487;-69
2021/06/22 10:26:20;;;;;;;6.53;3.33;;;;;;;20.71;47.94;100370.28;5100744;28;20509;-69
2021/06/22 10:28:48;;;;;;;6.13;3.30;;;;;;;20.21;50.13;100365.91;5100975;28;20536;-69
2021/06/22 10:31:15;;;;;;;6.33;3.00;;;;;;;20.39;48.82;100376.22;5098763;28;20491;-69
2021/06/22 10:33:42;;;;;;;11.37;3.73;;;;;;;20.18;49.75;100379.88;5104554;28;20798;-69
2021/06/22 10:36:10;;;;;;;6.97;3.47;;;;;;;19.60;50.85;100368.38;5104832;28;20463;-69
2021/06/22 10:38:38;;;;;;;10.93;4.23;;;;;;;19.81;50.97;100372.94;5104759;28;20706;-69
2021/06/22 10:41:05;;;;;;;7.93;3.73;;;;;;;19.70;52.08;100368.88;5104083;28;20494;-69
2021/06/22 10:43:36;;;;;;;6.70;2.93;;;;;;;19.26;51.73;100378.97;5105263;28;20443;-69
2021/06/22 10:46:06;;;;;;;10.17;4.40;;;;;;;19.65;51.73;100372.19;5103820;28;20506;-69
2021/06/22 10:48:41;;;;;;;8.50;3.70;;;;;;;19.60;51.60;100374.66;5105460;28;20438;-69
2021/06/22 10:51:30;;;;;;;6.70;2.93;;;;;;;19.32;51.99;100383.63;5104268;28;20475;-69
2021/06/22 10:53:57;;;;;;;11.03;3.70;;;;;;;19.12;52.57;100375.28;5104400;28;20566;-69
2021/06/22 10:56:25;;;;;;;6.00;3.10;;;;;;;19.36;52.57;100378.63;5104575;28;20536;-69
2021/06/22 10:59:24;;;;;;;8.20;3.10;;;;;;;19.49;52.38;100365.16;5105170;28;20510;-69
2021/06/22 11:02:00;;;;;;;7.27;2.97;;;;;;;18.91;52.59;100372.56;5104563;28;20487;-69
2021/06/22 11:04:27;;;;;;;9.27;2.90;;;;;;;18.61;53.51;100378.88;5104137;28;20470;-69
2021/06/22 11:07:18;;;;;;;8.67;4.17;;;;;;;18.60;53.80;100373.66;5103386;28;20498;-69
2021/06/22 11:10:09;;;;;;;10.07;2.87;;;;;;;19.04;53.42;100380.81;5104616;28;20476;-69
2021/06/22 11:12:47;;;;;;;6.10;2.83;;;;;;;19.11;51.87;100386.31;5104953;28;20451;-69
2021/06/22 11:15:14;;;;;;;8.10;3.03;;;;;;;19.15;52.74;100387.63;5102901;28;20470;-69
2021/06/22 11:18:01;;;;;;;5.60;3.40;;;;;;;18.89;52.19;100389.03;5105104;28;20466;-69
2021/06/22 11:20:33;;;;;;;8.40;3.60;;;;;;;19.09;52.70;100388.38;5103564;28;20485;-69
2021/06/22 11:23:06;;;;;;;6.43;3.20;;;;;;;18.67;53.41;100385.41;5103499;28;20452;-69
2021/06/22 11:25:54;;;;;;;7.87;3.40;;;;;;;18.64;52.67;100396.59;5103476;28;20543;-69